Tega Cay, South Carolina
Current Conditions -  °F | °C
As of 5:19 AM on Monday 22 Dec 2014 (Local Time) from KUZA Reporting Station
Haze Haze  
Wind Chill: 37°   Ceiling: 600
Heat Index: 41°   Visibility: 3mi
Dew Point: 39°   Wind: 6mph
Humidity: 93%   Direction: 40°NE
Pressure: 30.11"   Gusts: NA
Location:  35.0493°N, 80.9623°W
Report Text: KUZA 221019Z AUTO 04005KT 3SM BR BKN006 OVC012 05/04 A3011 RMK AO2 RAE09 P0001 T00500039
Loading
Personal Weather Stations






























Interactive Weather Map New forecast layout! Learn more

10-Day Weather Forecast

Advertisements
Track Severe Weather on mobile